LFBD/BOD METAR and TAF weather

Enter ICAO airport designator
Station Type Date Time Source
LFBD METAR 2019/12/07 07:30 UTC NOAA

LFBD 070730Z AUTO 20005KT 4700 BR BKN003 OVC007 10/09 Q1022 TEMPO 2000 -RADZ


Station Type Date Time Source
LFBD Decoded METAR 2019/12/07 07:30 UTC NOAA

Bordeaux / Merignac, France (LFBD) 44-50N 000-42W 61M
Dec 07, 2019 - 02:30 AM EST / 2019.12.07 0730 UTC
Wind: from the SSW (200 degrees) at 6 MPH (5 KT):0
Visibility: 2 mile(s):0
Sky conditions: overcast
Weather: mist
Temperature: 50 F (10 C)
Dew Point: 48 F (9 C)
Relative Humidity: 93%
Pressure (altimeter): 30.18 in. Hg (1022 hPa)
ob: LFBD 070730Z AUTO 20005KT 4700 BR BKN003 OVC007 10/09 Q1022 TEMPO 2000 -RADZ
cycle: 7

Station Type Date Time Source
LFBD TAF 2019/12/07 06:49 UTC NOAA

TAF
AMD LFBD 070645Z 0706/0812 18005KT 6000 BKN030 TX12/0712Z TN06/0706Z
TEMPO 0706/0714 2000 -RADZ OVC003
TEMPO 0720/0802 BKN002
BECMG 0807/0809 24010KT 4000 -RA
TEMPO 0809/0812 2500 RA OVC010

Example: see airport list